Time;durP1;ratioP1;P1;durP2;ratioP2;P2;SDS_P1;SDS_P2;PMS_P1;PMS_P2;Temp;Humidity;BMP_temperature;BMP_pressure;BME280_temperature;BME280_humidity;BME280_pressure;Samples;Min_cycle;Max_cycle;Signal;HPM_P1;HPM_P2
2022/07/10 00:01:48;;;;;;;5.20;4.10;;;16.30;94.20;;;;;;4987367;28;20203;-60
2022/07/10 00:04:13;;;;;;;6.10;4.50;;;16.30;94.00;;;;;;4991840;28;20460;-60
2022/07/10 00:06:41;;;;;;;8.60;6.20;;;16.30;93.80;;;;;;4985319;28;20996;-61
2022/07/10 00:09:07;;;;;;;7.00;4.43;;;16.30;93.90;;;;;;4990179;28;20177;-61
2022/07/10 00:11:33;;;;;;;5.83;4.70;;;16.30;94.40;;;;;;4992520;28;20918;-61
2022/07/10 00:13:59;;;;;;;7.50;4.63;;;16.30;94.10;;;;;;4978391;28;20541;-61
2022/07/10 00:16:24;;;;;;;6.53;4.70;;;16.30;93.80;;;;;;4981522;28;20181;-61
2022/07/10 00:18:50;;;;;;;7.77;4.33;;;16.30;94.10;;;;;;4988827;28;20216;-61
2022/07/10 00:21:16;;;;;;;10.57;4.20;;;16.30;94.70;;;;;;4993502;28;20181;-60
2022/07/10 00:23:42;;;;;;;6.40;4.17;;;16.30;94.30;;;;;;4992250;28;20423;-61
2022/07/10 00:26:09;;;;;;;7.17;5.10;;;16.30;93.60;;;;;;4988717;28;20211;-61
2022/07/10 00:28:34;;;;;;;6.63;4.17;;;16.30;93.40;;;;;;4983314;28;20437;-61
2022/07/10 00:31:00;;;;;;;4.53;3.80;;;16.30;93.20;;;;;;4989251;28;20444;-60
2022/07/10 00:33:27;;;;;;;5.30;4.13;;;16.20;93.10;;;;;;4986826;28;20912;-62
2022/07/10 00:35:53;;;;;;;4.60;4.20;;;16.20;93.50;;;;;;4985088;28;20181;-61
2022/07/10 00:38:19;;;;;;;5.27;4.87;;;16.10;93.30;;;;;;4986497;28;20444;-61
2022/07/10 00:40:45;;;;;;;9.67;4.50;;;16.10;93.60;;;;;;4987963;28;20177;-61
2022/07/10 00:43:10;;;;;;;5.00;4.50;;;16.10;93.80;;;;;;4984851;28;20564;-61
2022/07/10 00:45:36;;;;;;;4.13;3.80;;;16.10;94.20;;;;;;4988959;28;20613;-61
2022/07/10 00:48:02;;;;;;;5.40;4.03;;;16.10;94.50;;;;;;4989784;28;20181;-61
2022/07/10 00:50:29;;;;;;;4.93;4.43;;;16.10;94.90;;;;;;4984327;28;20177;-61
2022/07/10 00:52:55;;;;;;;4.83;4.27;;;16.00;95.40;;;;;;4985541;28;20459;-61
2022/07/10 00:55:21;;;;;;;5.50;4.00;;;16.00;95.70;;;;;;4990182;28;20531;-61
2022/07/10 00:57:48;;;;;;;7.07;4.80;;;16.00;96.00;;;;;;4987289;28;20571;-61
2022/07/10 01:00:15;;;;;;;5.33;4.23;;;15.90;96.10;;;;;;4987219;28;20960;-60
2022/07/10 01:02:42;;;;;;;7.23;4.33;;;15.90;96.70;;;;;;4988828;28;21003;-61
2022/07/10 01:05:09;;;;;;;4.10;3.80;;;15.80;97.40;;;;;;4982224;28;20456;-61
2022/07/10 01:07:35;;;;;;;6.93;4.20;;;15.80;97.70;;;;;;4986638;28;20428;-60
2022/07/10 01:10:02;;;;;;;5.90;4.30;;;15.80;97.90;;;;;;4989259;28;20436;-60
2022/07/10 01:12:28;;;;;;;4.53;4.13;;;15.80;98.10;;;;;;4982056;28;20174;-60
2022/07/10 01:14:54;;;;;;;5.30;4.10;;;15.80;98.20;;;;;;4983812;28;20455;-61
2022/07/10 01:17:21;;;;;;;5.00;4.03;;;15.70;98.90;;;;;;4986500;28;20432;-61
2022/07/10 01:19:46;;;;;;;4.77;4.37;;;15.70;99.30;;;;;;4989636;28;20487;-61
2022/07/10 01:22:12;;;;;;;6.50;4.40;;;15.70;99.60;;;;;;4989999;28;20906;-61
2022/07/10 01:24:38;;;;;;;4.80;4.30;;;15.70;99.50;;;;;;4983125;28;20272;-61
2022/07/10 01:27:04;;;;;;;6.63;3.47;;;15.70;99.60;;;;;;4989092;28;20685;-61
2022/07/10 01:29:29;;;;;;;5.47;3.80;;;15.60;99.80;;;;;;4987486;28;20182;-61
2022/07/10 01:31:55;;;;;;;4.67;4.03;;;15.60;99.90;;;;;;4985415;28;20444;-60
2022/07/10 01:34:21;;;;;;;3.97;3.67;;;15.60;99.90;;;;;;4989605;28;20690;-61
2022/07/10 01:36:47;;;;;;;4.10;3.77;;;15.60;99.90;;;;;;4978491;28;20263;-60
2022/07/10 01:39:13;;;;;;;5.00;4.60;;;15.60;99.90;;;;;;4983522;28;20263;-61
2022/07/10 01:41:38;;;;;;;4.23;3.83;;;15.60;99.90;;;;;;4983415;28;20427;-60
2022/07/10 01:44:04;;;;;;;4.23;3.90;;;15.60;99.90;;;;;;4984640;28;20633;-60
2022/07/10 01:46:30;;;;;;;5.77;4.27;;;15.60;99.90;;;;;;4975199;28;20208;-60
2022/07/10 01:48:56;;;;;;;5.00;4.50;;;15.70;99.90;;;;;;4989702;28;20173;-60
2022/07/10 01:51:22;;;;;;;4.80;4.40;;;15.70;99.90;;;;;;4989327;28;20176;-60
2022/07/10 01:53:48;;;;;;;5.43;4.67;;;15.70;99.90;;;;;;4984977;28;20457;-59
2022/07/10 01:56:15;;;;;;;5.83;4.27;;;15.60;99.90;;;;;;4984303;28;20181;-59
2022/07/10 01:58:41;;;;;;;6.13;4.67;;;15.60;99.90;;;;;;4986757;28;20185;-59
2022/07/10 02:01:07;;;;;;;6.60;4.53;;;15.60;99.90;;;;;;4988174;28;20447;-60
2022/07/10 02:06:17;;;;;;;7.40;5.40;;;15.60;99.90;;;;;;4984009;28;20866;-59
2022/07/10 02:08:43;;;;;;;9.13;4.97;;;15.60;99.90;;;;;;4983422;28;20425;-59
2022/07/10 02:11:09;;;;;;;7.53;4.50;;;15.60;99.90;;;;;;4982549;28;20556;-60
2022/07/10 02:13:35;;;;;;;5.10;4.70;;;15.60;99.90;;;;;;4987257;28;20177;-59
2022/07/10 02:16:01;;;;;;;5.73;4.80;;;15.60;99.90;;;;;;4983581;28;20427;-59
2022/07/10 02:18:26;;;;;;;7.30;5.00;;;15.60;99.90;;;;;;4986924;28;20228;-59
2022/07/10 02:20:52;;;;;;;6.70;4.80;;;15.70;99.90;;;;;;4988327;28;20710;-60
2022/07/10 02:23:18;;;;;;;9.37;4.87;;;15.70;99.90;;;;;;4976552;28;20679;-60
2022/07/10 02:25:44;;;;;;;5.47;4.40;;;15.70;99.90;;;;;;4996912;28;20196;-60
2022/07/10 02:28:10;;;;;;;5.00;4.50;;;15.70;99.90;;;;;;4983352;28;21105;-60
2022/07/10 02:30:36;;;;;;;6.03;4.70;;;15.70;99.90;;;;;;4985509;28;20425;-61
2022/07/10 02:33:02;;;;;;;7.83;4.80;;;15.60;99.90;;;;;;4986974;28;20932;-60
2022/07/10 02:35:28;;;;;;;7.03;4.83;;;15.60;99.90;;;;;;4978310;28;20201;-60
2022/07/10 02:37:54;;;;;;;6.93;4.77;;;15.50;99.90;;;;;;4983254;28;20807;-61
2022/07/10 02:40:20;;;;;;;5.50;5.00;;;15.50;99.90;;;;;;4980196;28;20177;-61
2022/07/10 02:42:45;;;;;;;6.30;4.53;;;15.50;99.90;;;;;;4988727;28;20651;-60
2022/07/10 02:45:11;;;;;;;5.53;5.03;;;15.40;99.90;;;;;;4986567;28;20205;-61
2022/07/10 02:47:36;;;;;;;5.13;4.60;;;15.40;99.90;;;;;;4985366;28;20735;-60
2022/07/10 02:50:03;;;;;;;5.20;4.33;;;15.40;99.90;;;;;;4978183;28;20177;-60
2022/07/10 02:52:30;;;;;;;6.50;4.53;;;15.40;99.90;;;;;;4986427;28;20231;-60
2022/07/10 02:54:56;;;;;;;10.67;4.27;;;15.30;99.90;;;;;;4985636;28;20441;-60
2022/07/10 02:57:22;;;;;;;5.43;4.53;;;15.30;99.90;;;;;;4986019;28;20412;-61
2022/07/10 02:59:47;;;;;;;7.17;4.40;;;15.30;99.90;;;;;;4984392;28;20567;-60
2022/07/10 03:02:13;;;;;;;6.10;4.93;;;15.20;99.90;;;;;;4986853;28;20434;-60
2022/07/10 03:04:39;;;;;;;5.90;4.93;;;15.20;99.90;;;;;;4985492;28;20197;-61
2022/07/10 03:07:05;;;;;;;4.90;4.50;;;15.20;99.90;;;;;;4981098;28;20228;-62
2022/07/10 03:09:30;;;;;;;5.73;5.20;;;15.10;99.90;;;;;;4987427;28;20169;-61
2022/07/10 03:11:56;;;;;;;5.47;4.63;;;15.10;99.90;;;;;;4987747;28;20215;-61
2022/07/10 03:14:22;;;;;;;5.50;5.00;;;15.10;99.90;;;;;;4988259;28;20192;-60
2022/07/10 03:16:47;;;;;;;7.50;4.57;;;15.00;99.90;;;;;;4983811;28;20218;-61
2022/07/10 03:19:13;;;;;;;6.60;5.10;;;15.00;99.90;;;;;;4989023;28;20192;-61
2022/07/10 03:21:38;;;;;;;7.60;4.53;;;15.00;99.90;;;;;;4992163;28;20688;-60
2022/07/10 03:24:05;;;;;;;6.10;4.90;;;14.90;99.90;;;;;;4987344;28;20240;-61
2022/07/10 03:26:30;;;;;;;5.13;4.63;;;14.90;99.90;;;;;;4991237;28;20272;-61
2022/07/10 03:28:56;;;;;;;6.20;5.40;;;14.90;99.90;;;;;;4991624;28;20547;-61
2022/07/10 03:31:22;;;;;;;8.10;5.00;;;14.80;99.90;;;;;;4987569;28;20207;-60
2022/07/10 03:33:48;;;;;;;6.30;5.20;;;14.80;99.90;;;;;;4991097;28;20227;-60
2022/07/10 03:36:14;;;;;;;5.13;4.63;;;14.80;99.90;;;;;;4987758;28;20428;-60
2022/07/10 03:38:40;;;;;;;6.00;4.90;;;14.80;99.90;;;;;;4987891;28;20629;-61
2022/07/10 03:41:06;;;;;;;5.40;4.90;;;14.80;99.90;;;;;;4987022;28;20427;-60
2022/07/10 03:43:31;;;;;;;5.13;4.63;;;14.80;99.90;;;;;;4990946;28;20181;-60
2022/07/10 03:45:58;;;;;;;7.00;5.20;;;14.80;99.90;;;;;;4988214;28;20228;-61
2022/07/10 03:48:24;;;;;;;5.70;4.77;;;14.80;99.90;;;;;;4987037;28;20197;-61
2022/07/10 03:50:51;;;;;;;6.50;5.17;;;14.70;99.90;;;;;;4989947;28;20404;-61
2022/07/10 03:53:17;;;;;;;5.80;5.30;;;14.70;99.90;;;;;;4990497;28;20839;-61
2022/07/10 03:55:42;;;;;;;8.17;6.10;;;14.70;99.90;;;;;;4990228;28;20531;-61
2022/07/10 03:58:08;;;;;;;5.70;5.10;;;14.70;99.90;;;;;;4990321;28;20526;-60
2022/07/10 04:00:37;;;;;;;6.10;5.20;;;14.80;99.90;;;;;;4989520;28;20177;-60
2022/07/10 04:03:05;;;;;;;7.53;5.57;;;14.80;99.90;;;;;;4990343;28;20268;-61
2022/07/10 04:05:31;;;;;;;6.13;5.53;;;14.80;99.90;;;;;;4988605;28;21034;-60
2022/07/10 04:07:58;;;;;;;6.30;5.57;;;14.80;99.90;;;;;;4986623;28;20486;-61
2022/07/10 04:10:25;;;;;;;6.20;5.00;;;14.70;99.90;;;;;;4989800;28;20432;-60
2022/07/10 04:12:52;;;;;;;6.33;5.40;;;14.70;99.90;;;;;;4989818;28;20463;-61
2022/07/10 04:15:18;;;;;;;8.50;5.90;;;14.70;99.90;;;;;;4989594;28;20470;-60
2022/07/10 04:17:43;;;;;;;7.57;5.27;;;14.70;99.90;;;;;;4988260;28;20472;-60
2022/07/10 04:20:10;;;;;;;7.00;5.40;;;14.70;99.90;;;;;;4990848;28;20922;-62
2022/07/10 04:22:35;;;;;;;6.17;5.00;;;14.70;99.90;;;;;;4991370;28;20185;-61
2022/07/10 04:25:02;;;;;;;7.87;5.27;;;14.70;99.90;;;;;;4990338;28;20497;-61
2022/07/10 04:27:28;;;;;;;5.87;4.97;;;14.70;99.90;;;;;;4988403;28;20553;-61
2022/07/10 04:29:54;;;;;;;5.60;5.03;;;14.70;99.90;;;;;;4988551;28;20651;-61
2022/07/10 04:32:19;;;;;;;5.30;4.80;;;14.70;99.90;;;;;;4989102;28;21273;-61
2022/07/10 04:34:45;;;;;;;6.90;5.23;;;14.70;99.90;;;;;;4987195;28;20232;-61
2022/07/10 04:37:11;;;;;;;15.57;5.87;;;14.70;99.90;;;;;;4989335;28;20181;-60
2022/07/10 04:39:39;;;;;;;5.73;5.13;;;14.80;99.90;;;;;;4991320;28;20178;-61
2022/07/10 04:42:08;;;;;;;7.00;5.43;;;14.80;99.90;;;;;;4988907;28;20548;-60
2022/07/10 04:44:35;;;;;;;6.40;5.80;;;14.80;99.90;;;;;;4989546;28;20458;-60
2022/07/10 04:47:01;;;;;;;6.60;5.90;;;14.90;99.90;;;;;;4989005;28;20980;-60
2022/07/10 04:49:27;;;;;;;6.40;5.70;;;15.00;99.90;;;;;;4989355;28;20443;-60
2022/07/10 04:51:53;;;;;;;10.07;5.40;;;15.00;99.90;;;;;;4988234;28;20181;-60
2022/07/10 04:54:18;;;;;;;5.57;5.07;;;15.10;99.90;;;;;;4988737;28;20205;-60
2022/07/10 04:56:44;;;;;;;5.87;4.70;;;15.10;99.90;;;;;;4989728;28;20828;-60
2022/07/10 04:59:10;;;;;;;6.40;5.80;;;15.10;99.90;;;;;;4989153;28;20581;-60
2022/07/10 05:01:37;;;;;;;5.20;4.80;;;15.10;99.90;;;;;;4988696;28;20765;-60
2022/07/10 05:04:03;;;;;;;5.03;4.53;;;15.20;99.90;;;;;;4987431;28;20206;-60
2022/07/10 05:06:29;;;;;;;7.20;5.23;;;15.10;99.90;;;;;;4986306;28;20460;-60
2022/07/10 05:08:55;;;;;;;4.90;4.43;;;15.20;99.90;;;;;;4990176;28;21032;-60
2022/07/10 05:11:21;;;;;;;14.63;4.47;;;15.30;99.90;;;;;;4989956;28;20185;-60
2022/07/10 05:13:48;;;;;;;5.70;4.80;;;15.30;99.90;;;;;;4988770;28;20439;-60
2022/07/10 05:16:15;;;;;;;6.30;5.20;;;15.30;99.90;;;;;;4986190;28;20166;-60
2022/07/10 05:18:40;;;;;;;6.97;5.47;;;15.40;99.90;;;;;;4990097;28;20416;-60
2022/07/10 05:21:07;;;;;;;5.10;4.60;;;15.50;99.90;;;;;;4987396;28;20435;-61
2022/07/10 05:23:33;;;;;;;5.60;5.10;;;15.50;99.90;;;;;;4989386;28;20173;-60
2022/07/10 05:25:59;;;;;;;5.60;5.00;;;15.50;99.90;;;;;;4989060;28;20441;-60
2022/07/10 05:28:25;;;;;;;7.60;5.40;;;15.60;99.90;;;;;;4988466;28;20428;-60
2022/07/10 05:30:51;;;;;;;6.50;5.33;;;15.60;99.90;;;;;;4989376;28;20177;-61
2022/07/10 05:33:17;;;;;;;7.17;6.20;;;15.70;99.90;;;;;;5002830;28;20192;-60
2022/07/10 05:35:43;;;;;;;8.00;6.20;;;15.70;99.90;;;;;;4984402;28;20471;-61
2022/07/10 05:38:08;;;;;;;7.97;5.67;;;15.80;99.90;;;;;;4989745;28;20400;-61
2022/07/10 05:40:34;;;;;;;11.80;7.00;;;15.80;99.90;;;;;;4989844;28;20223;-61
2022/07/10 05:43:00;;;;;;;8.00;7.20;;;15.90;99.90;;;;;;4986448;28;20542;-60
2022/07/10 05:45:26;;;;;;;8.10;7.07;;;15.90;99.90;;;;;;4986142;28;20208;-60
2022/07/10 05:47:51;;;;;;;9.10;7.50;;;15.90;99.90;;;;;;4989036;28;20177;-61
2022/07/10 05:50:17;;;;;;;9.70;7.00;;;16.00;99.90;;;;;;4989010;28;20265;-60
2022/07/10 05:52:43;;;;;;;7.83;7.03;;;16.00;99.90;;;;;;4987521;28;20169;-61
2022/07/10 05:55:09;;;;;;;8.57;7.07;;;16.10;99.90;;;;;;4988440;28;20201;-60
2022/07/10 05:57:35;;;;;;;6.90;6.20;;;16.10;99.90;;;;;;4988478;28;20181;-61
2022/07/10 06:00:01;;;;;;;8.70;7.03;;;16.20;99.20;;;;;;4987082;28;20173;-61
2022/07/10 06:02:26;;;;;;;7.40;5.73;;;16.20;98.70;;;;;;4986273;28;20436;-61
2022/07/10 06:04:52;;;;;;;7.33;6.50;;;16.30;99.00;;;;;;4988120;28;20534;-61
2022/07/10 06:07:18;;;;;;;7.83;5.97;;;16.30;98.90;;;;;;4988639;28;20413;-60
2022/07/10 06:09:43;;;;;;;7.50;6.40;;;16.30;97.90;;;;;;4988574;28;20180;-61
2022/07/10 06:12:09;;;;;;;11.90;6.17;;;16.40;97.40;;;;;;4987066;28;20192;-62
2022/07/10 06:14:35;;;;;;;6.97;6.27;;;16.40;96.50;;;;;;4985275;28;20697;-61
2022/07/10 06:17:01;;;;;;;10.07;6.30;;;16.40;96.60;;;;;;4987464;28;20276;-60
2022/07/10 06:19:27;;;;;;;6.40;5.80;;;16.40;96.60;;;;;;4988618;28;20952;-60
2022/07/10 06:22:30;;;;;;;8.00;6.03;;;16.40;96.30;;;;;;4987806;28;20737;-61
2022/07/10 06:24:38;;;;;;;8.70;6.90;;;16.40;96.40;;;;;;4988270;28;20589;-61
2022/07/10 06:27:05;;;;;;;8.50;7.00;;;16.40;97.00;;;;;;4988068;28;20463;-61
2022/07/10 06:29:31;;;;;;;14.20;6.97;;;16.40;96.30;;;;;;4979910;28;20495;-61
2022/07/10 06:31:56;;;;;;;10.90;7.10;;;16.40;96.50;;;;;;4984631;28;20960;-61
2022/07/10 06:34:22;;;;;;;13.83;7.37;;;16.40;96.60;;;;;;4988403;28;20809;-61
2022/07/10 06:36:48;;;;;;;6.87;6.27;;;16.40;95.90;;;;;;4985123;28;20272;-60
2022/07/10 06:39:13;;;;;;;9.63;7.60;;;16.40;95.90;;;;;;4987700;28;20177;-60
2022/07/10 06:41:39;;;;;;;8.83;7.00;;;16.40;96.00;;;;;;4989473;28;20730;-61
2022/07/10 06:44:05;;;;;;;7.90;7.00;;;16.50;95.60;;;;;;4986018;28;20262;-61
2022/07/10 06:46:32;;;;;;;7.77;6.90;;;16.50;95.10;;;;;;4980379;28;20210;-60
2022/07/10 06:48:58;;;;;;;11.43;7.33;;;16.50;95.50;;;;;;4986173;28;20304;-60
2022/07/10 06:51:24;;;;;;;10.73;7.47;;;16.50;95.20;;;;;;4987787;28;20421;-61
2022/07/10 06:53:50;;;;;;;10.00;6.90;;;16.50;95.90;;;;;;4987716;28;20836;-62
2022/07/10 06:56:16;;;;;;;8.40;6.97;;;16.50;95.60;;;;;;4987388;28;20193;-61
2022/07/10 06:58:41;;;;;;;9.43;7.20;;;16.50;95.90;;;;;;4988733;28;20838;-60
2022/07/10 07:01:07;;;;;;;10.93;7.80;;;16.50;96.00;;;;;;4978505;28;20204;-57
2022/07/10 07:03:33;;;;;;;8.10;7.30;;;16.50;96.00;;;;;;4983342;28;20241;-56
2022/07/10 07:05:59;;;;;;;9.30;8.40;;;16.50;96.00;;;;;;4987560;28;20576;-56
2022/07/10 07:08:24;;;;;;;12.07;7.77;;;16.50;96.50;;;;;;4988347;28;20542;-56
2022/07/10 07:10:50;;;;;;;14.83;7.43;;;16.60;96.80;;;;;;4979108;28;20185;-57
2022/07/10 07:13:17;;;;;;;14.10;8.60;;;16.60;98.10;;;;;;4987908;28;20169;-56
2022/07/10 07:15:48;;;;;;;9.90;8.10;;;16.70;95.60;;;;;;4984239;28;20204;-57
2022/07/10 07:18:16;;;;;;;11.77;9.53;;;16.70;95.60;;;;;;4982035;28;20524;-57
2022/07/10 07:23:26;;;;;;;10.50;8.77;;;16.90;94.30;;;;;;4984607;28;20470;-56
2022/07/10 07:25:52;;;;;;;9.60;8.70;;;17.00;93.00;;;;;;4982523;28;20460;-56
2022/07/10 07:28:19;;;;;;;9.73;8.80;;;17.00;93.40;;;;;;4982486;28;20432;-57
2022/07/10 07:30:46;;;;;;;10.00;8.13;;;17.10;92.10;;;;;;4979889;28;20444;-56
2022/07/10 07:33:12;;;;;;;12.97;8.60;;;17.20;90.60;;;;;;4983134;28;20511;-57
2022/07/10 07:35:38;;;;;;;12.00;9.63;;;17.20;89.60;;;;;;4979011;28;20925;-57
2022/07/10 07:38:05;;;;;;;10.93;9.83;;;17.20;90.30;;;;;;4980192;28;20181;-60
2022/07/10 07:40:31;;;;;;;12.07;9.80;;;17.20;90.40;;;;;;4981195;28;20178;-61
2022/07/10 07:42:58;;;;;;;10.87;8.90;;;17.10;91.00;;;;;;4985290;28;20428;-61
2022/07/10 07:45:24;;;;;;;10.90;9.13;;;17.10;91.40;;;;;;4986488;28;20551;-61
2022/07/10 07:47:51;;;;;;;10.67;9.57;;;17.10;91.20;;;;;;4988246;28;20424;-61
2022/07/10 07:50:21;;;;;;;10.63;8.90;;;17.10;91.60;;;;;;4987910;28;20416;-62
2022/07/10 07:52:47;;;;;;;10.03;8.63;;;17.10;92.30;;;;;;4975435;28;20435;-61
2022/07/10 07:55:15;;;;;;;10.50;7.60;;;17.30;91.90;;;;;;4973296;28;20978;-61
2022/07/10 07:57:41;;;;;;;9.10;7.70;;;17.40;90.30;;;;;;4972999;28;20429;-62
2022/07/10 08:00:08;;;;;;;9.87;8.47;;;17.40;89.60;;;;;;4976516;28;20511;-63
2022/07/10 08:02:35;;;;;;;9.33;7.37;;;17.50;87.80;;;;;;4976888;28;20444;-61
2022/07/10 08:05:00;;;;;;;9.93;7.50;;;17.40;86.40;;;;;;4977253;28;20460;-63
2022/07/10 08:07:41;;;;;;;8.50;7.30;;;17.40;85.40;;;;;;4982230;28;20503;-61
2022/07/10 08:10:16;;;;;;;9.80;6.70;;;17.40;90.10;;;;;;4984563;28;20605;-63
2022/07/10 08:12:43;;;;;;;9.50;6.90;;;17.60;91.30;;;;;;4985186;28;21038;-61
2022/07/10 08:15:10;;;;;;;8.23;6.87;;;17.90;89.30;;;;;;4981970;28;21003;-61
2022/07/10 08:17:36;;;;;;;10.90;6.00;;;18.20;85.60;;;;;;4985804;28;20416;-60
2022/07/10 08:20:03;;;;;;;8.50;6.00;;;18.40;78.90;;;;;;4981284;28;20412;-61
2022/07/10 08:22:29;;;;;;;7.37;5.80;;;18.60;74.10;;;;;;4988033;28;20456;-62
2022/07/10 08:24:56;;;;;;;5.70;5.10;;;18.80;71.30;;;;;;4987547;28;20444;-62
2022/07/10 08:27:22;;;;;;;7.00;6.30;;;18.90;71.90;;;;;;4984348;28;20196;-62
2022/07/10 08:29:47;;;;;;;10.90;6.50;;;18.90;71.60;;;;;;4985713;28;20424;-63
2022/07/10 08:32:13;;;;;;;6.60;4.93;;;18.80;70.40;;;;;;4987864;28;20224;-62
2022/07/10 08:34:39;;;;;;;6.23;5.27;;;18.80;69.80;;;;;;4974291;28;20212;-61
2022/07/10 08:37:05;;;;;;;7.40;5.47;;;18.90;69.20;;;;;;4983442;28;20212;-61
2022/07/10 08:39:31;;;;;;;8.00;5.10;;;19.00;68.80;;;;;;4983079;28;20268;-61
2022/07/10 08:41:57;;;;;;;7.60;4.77;;;19.20;68.60;;;;;;4978375;28;20229;-61
2022/07/10 08:44:23;;;;;;;8.57;5.43;;;19.40;66.90;;;;;;4982654;28;20457;-62
2022/07/10 08:46:49;;;;;;;5.87;5.10;;;19.50;64.50;;;;;;4982444;28;20475;-61
2022/07/10 08:49:16;;;;;;;5.33;4.73;;;19.70;66.80;;;;;;4989947;28;20176;-61
2022/07/10 08:51:54;;;;;;;6.53;5.20;;;19.90;65.60;;;;;;4983221;28;20957;-61
2022/07/10 08:54:20;;;;;;;4.70;4.20;;;20.10;63.10;;;;;;4989907;28;20479;-61
2022/07/10 08:56:47;;;;;;;4.60;4.20;;;20.20;61.50;;;;;;4989230;28;20492;-60
2022/07/10 08:59:14;;;;;;;6.70;4.40;;;20.30;61.10;;;;;;4985150;28;20774;-60
2022/07/10 09:01:40;;;;;;;5.00;4.00;;;20.40;59.90;;;;;;4990443;28;20401;-61
2022/07/10 09:04:06;;;;;;;6.40;4.30;;;20.40;59.20;;;;;;4985227;28;20456;-60
2022/07/10 09:06:31;;;;;;;5.53;3.57;;;20.50;59.20;;;;;;4982574;28;20602;-61
2022/07/10 09:09:01;;;;;;;5.47;4.00;;;20.60;59.30;;;;;;4978752;28;20518;-61
2022/07/10 09:11:29;;;;;;;5.27;4.77;;;20.60;58.10;;;;;;4989074;28;20176;-60
2022/07/10 09:14:04;;;;;;;4.80;4.30;;;20.60;56.10;;;;;;4988728;28;20495;-61
2022/07/10 09:16:34;;;;;;;5.40;4.50;;;20.40;54.50;;;;;;4988576;28;20503;-61
2022/07/10 09:19:19;;;;;;;4.20;3.80;;;20.30;55.00;;;;;;4983100;28;20436;-61
2022/07/10 09:22:02;;;;;;;5.97;4.20;;;20.30;57.60;;;;;;4988744;28;20416;-61
2022/07/10 09:24:43;;;;;;;7.97;4.07;;;20.50;58.10;;;;;;4990187;28;20478;-61
2022/07/10 09:27:10;;;;;;;4.20;3.80;;;20.60;55.90;;;;;;4983046;28;20463;-60
2022/07/10 09:29:54;;;;;;;9.90;4.20;;;20.50;53.80;;;;;;4988547;28;20420;-62
2022/07/10 09:32:20;;;;;;;4.27;3.87;;;20.40;54.50;;;;;;4983745;28;20440;-58
2022/07/10 09:34:47;;;;;;;5.00;3.87;;;20.40;55.60;;;;;;4979327;28;20594;-60
2022/07/10 09:37:23;;;;;;;5.63;3.63;;;20.40;56.70;;;;;;4982557;28;20435;-59
2022/07/10 09:39:56;;;;;;;4.57;3.80;;;20.40;57.70;;;;;;4984267;28;20955;-60
2022/07/10 09:42:30;;;;;;;5.70;4.20;;;20.30;55.50;;;;;;4978384;28;20443;-60
2022/07/10 09:45:13;;;;;;;4.10;3.70;;;20.00;54.80;;;;;;4979259;28;20470;-60
2022/07/10 09:47:40;;;;;;;7.20;3.50;;;19.90;53.70;;;;;;4982581;28;20433;-62
2022/07/10 09:50:24;;;;;;;3.93;3.60;;;20.00;54.90;;;;;;4976460;28;20432;-62
2022/07/10 09:52:58;;;;;;;4.67;3.43;;;20.20;55.30;;;;;;4986661;28;20863;-61
2022/07/10 09:55:26;;;;;;;3.47;3.27;;;20.50;56.90;;;;;;4980330;28;21992;-61
2022/07/10 09:57:56;;;;;;;4.27;3.87;;;20.60;55.60;;;;;;4977211;28;20444;-61
2022/07/10 10:00:33;;;;;;;5.20;4.20;;;20.70;55.40;;;;;;4988547;28;20435;-61
2022/07/10 10:03:00;;;;;;;3.80;3.20;;;20.90;54.90;;;;;;4982156;28;20439;-61
2022/07/10 10:05:30;;;;;;;4.43;3.53;;;21.10;55.30;;;;;;4984340;28;20478;-61
2022/07/10 10:07:58;;;;;;;11.00;3.40;;;21.10;55.20;;;;;;4980380;28;20425;-61
2022/07/10 10:10:24;;;;;;;3.60;3.30;;;21.10;55.80;;;;;;4982555;28;20460;-62
2022/07/10 10:12:57;;;;;;;3.73;3.13;;;21.20;55.50;;;;;;4985644;28;20463;-61
2022/07/10 10:15:24;;;;;;;5.50;3.20;;;21.20;55.80;;;;;;4988940;28;20980;-61
2022/07/10 10:17:51;;;;;;;3.37;3.07;;;21.20;56.60;;;;;;4975364;28;21051;-60
2022/07/10 10:23:04;;;;;;;4.10;3.70;;;20.90;56.10;;;;;;4977944;28;20987;-62
2022/07/10 10:25:32;;;;;;;3.87;3.27;;;20.80;56.40;;;;;;4987175;28;20464;-61
2022/07/10 10:28:01;;;;;;;4.03;3.50;;;20.80;56.00;;;;;;4983114;28;20428;-62
2022/07/10 10:30:27;;;;;;;3.67;3.27;;;21.10;56.10;;;;;;4981336;28;20458;-62
2022/07/10 10:32:53;;;;;;;4.90;3.97;;;21.40;56.20;;;;;;4986602;28;20560;-61
2022/07/10 10:35:46;;;;;;;4.37;3.77;;;21.60;55.10;;;;;;4983008;28;21218;-61
2022/07/10 10:38:13;;;;;;;4.00;3.40;;;21.50;53.70;;;;;;4984578;28;20177;-61
2022/07/10 10:40:39;;;;;;;3.40;3.10;;;21.30;54.10;;;;;;4986409;28;20439;-62
2022/07/10 10:43:23;;;;;;;4.60;3.00;;;21.50;55.50;;;;;;4988252;28;20408;-61
2022/07/10 10:45:50;;;;;;;4.13;3.00;;;21.80;54.70;;;;;;4981861;28;20494;-61
2022/07/10 10:48:17;;;;;;;4.10;3.00;;;22.10;55.00;;;;;;4986998;28;20999;-61
2022/07/10 10:50:52;;;;;;;5.67;3.23;;;22.20;53.80;;;;;;4983717;28;20440;-61
2022/07/10 10:53:21;;;;;;;7.50;2.97;;;22.00;52.20;;;;;;4979754;28;20454;-61
2022/07/10 10:56:04;;;;;;;5.60;3.80;;;21.60;52.10;;;;;;4985316;28;20456;-61
2022/07/10 10:58:41;;;;;;;5.80;3.00;;;21.40;54.30;;;;;;4988690;28;20412;-61
2022/07/10 11:01:25;;;;;;;8.33;3.63;;;21.70;55.20;;;;;;4984011;28;20989;-61
2022/07/10 11:04:12;;;;;;;3.53;2.93;;;22.10;55.20;;;;;;4983658;28;20432;-61
2022/07/10 11:06:39;;;;;;;4.50;3.30;;;22.50;54.30;;;;;;4982549;28;20988;-61
2022/07/10 11:09:21;;;;;;;5.40;3.07;;;22.90;54.70;;;;;;4980057;28;20459;-61
2022/07/10 11:12:01;;;;;;;2.90;2.70;;;23.00;52.60;;;;;;4978126;28;20445;-61
2022/07/10 11:14:29;;;;;;;6.30;3.37;;;23.10;53.10;;;;;;4984578;28;20458;-61
2022/07/10 11:16:55;;;;;;;3.47;3.17;;;23.20;52.40;;;;;;4986999;28;20862;-61
2022/07/10 11:19:26;;;;;;;7.40;3.20;;;23.20;51.50;;;;;;4981645;28;20514;-60
2022/07/10 11:22:10;;;;;;;4.63;2.97;;;23.20;52.80;;;;;;4969990;28;20426;-61
2022/07/10 11:25:14;;;;;;;3.80;2.67;;;23.30;53.00;;;;;;4986920;28;20443;-61
2022/07/10 11:27:57;;;;;;;4.30;2.73;;;23.40;52.50;;;;;;4984596;28;20494;-61
2022/07/10 11:30:23;;;;;;;3.93;2.90;;;23.60;53.20;;;;;;4988291;28;20432;-61
2022/07/10 11:32:50;;;;;;;2.77;2.50;;;23.90;51.90;;;;;;4979263;28;20455;-61
2022/07/10 11:35:17;;;;;;;5.70;3.00;;;24.00;51.70;;;;;;4981424;28;20585;-61
2022/07/10 11:37:53;;;;;;;4.10;2.70;;;24.00;51.30;;;;;;4985619;28;20446;-61
2022/07/10 11:40:20;;;;;;;5.03;2.80;;;23.90;51.60;;;;;;4989537;28;20525;-61
2022/07/10 11:42:50;;;;;;;3.37;2.87;;;24.10;52.10;;;;;;4977291;28;20464;-61
2022/07/10 11:45:30;;;;;;;3.90;2.93;;;24.10;49.80;;;;;;4989515;28;20460;-61
2022/07/10 11:47:56;;;;;;;4.17;3.10;;;24.00;50.30;;;;;;4990896;28;20923;-61
2022/07/10 11:50:22;;;;;;;5.43;3.03;;;24.10;50.40;;;;;;4986263;28;20433;-61
2022/07/10 11:52:48;;;;;;;3.63;3.03;;;24.10;48.20;;;;;;4989369;28;20428;-61
2022/07/10 11:55:19;;;;;;;3.30;2.60;;;23.90;48.10;;;;;;4990594;28;20478;-61
2022/07/10 11:57:48;;;;;;;3.67;2.43;;;23.70;49.70;;;;;;4990738;28;20188;-61
2022/07/10 12:00:30;;;;;;;3.10;2.80;;;23.40;49.10;;;;;;4985975;28;21550;-62
2022/07/10 12:02:57;;;;;;;4.27;3.10;;;23.10;49.70;;;;;;4983605;28;20937;-61
2022/07/10 12:05:36;;;;;;;4.10;2.80;;;23.30;51.40;;;;;;4988504;28;20859;-62
2022/07/10 12:08:02;;;;;;;2.50;2.23;;;23.70;51.80;;;;;;4986314;28;20469;-61
2022/07/10 12:10:29;;;;;;;4.03;2.50;;;24.00;51.70;;;;;;4987352;28;20471;-61
2022/07/10 12:13:12;;;;;;;4.50;3.10;;;24.40;50.60;;;;;;4988291;28;20440;-61
2022/07/10 12:15:39;;;;;;;4.50;2.60;;;24.70;48.90;;;;;;4989369;28;20513;-61
2022/07/10 12:18:08;;;;;;;2.77;2.30;;;24.80;49.30;;;;;;4988790;28;20428;-61
2022/07/10 12:20:35;;;;;;;4.67;2.93;;;24.60;47.30;;;;;;4989867;28;20451;-61
2022/07/10 12:23:01;;;;;;;3.13;2.40;;;24.30;47.70;;;;;;4991552;28;20444;-61
2022/07/10 12:25:26;;;;;;;2.57;2.37;;;24.20;48.80;;;;;;4990768;28;20486;-61
2022/07/10 12:27:57;;;;;;;3.57;2.70;;;24.30;49.30;;;;;;4976858;28;20442;-61
2022/07/10 12:30:23;;;;;;;3.20;2.20;;;24.30;49.10;;;;;;4975961;28;20220;-59
2022/07/10 12:32:49;;;;;;;2.50;2.30;;;24.20;48.20;;;;;;4968977;28;20444;-61
2022/07/10 12:35:15;;;;;;;2.80;2.60;;;24.10;48.70;;;;;;4983939;28;20459;-61
2022/07/10 12:37:50;;;;;;;4.00;2.80;;;24.30;49.90;;;;;;4976418;28;20253;-61
2022/07/10 12:40:34;;;;;;;4.17;2.60;;;24.70;50.50;;;;;;4972935;28;20292;-60
2022/07/10 12:43:03;;;;;;;4.53;2.70;;;25.00;49.30;;;;;;4977153;28;20488;-61
2022/07/10 12:45:29;;;;;;;4.57;2.67;;;25.30;49.30;;;;;;4980028;28;20483;-60
2022/07/10 12:47:55;;;;;;;5.20;2.30;;;25.60;49.00;;;;;;4976873;28;20436;-59
2022/07/10 12:50:23;;;;;;;7.20;2.63;;;25.80;48.50;;;;;;4977414;28;20178;-60
2022/07/10 12:52:49;;;;;;;5.33;2.80;;;26.10;47.70;;;;;;4980640;28;20264;-60
2022/07/10 12:55:21;;;;;;;3.00;2.30;;;26.10;45.70;;;;;;4972968;28;20456;-60
2022/07/10 12:57:57;;;;;;;2.90;2.63;;;25.70;44.80;;;;;;4976981;28;20185;-60